createdAt,value
2023-03-31T00:00:11.799Z,22.54
2023-03-31T00:02:41.523Z,22.49
2023-03-31T00:05:09.648Z,22.48
2023-03-31T00:07:38.064Z,22.53
2023-03-31T00:10:17.286Z,22.45
2023-03-31T00:12:45.753Z,22.53
2023-03-31T00:15:12.602Z,22.44
2023-03-31T00:17:39.916Z,22.52
2023-03-31T00:20:12.145Z,22.52
2023-03-31T00:22:42.324Z,22.46
2023-03-31T00:25:16.664Z,22.51
2023-03-31T00:27:44.963Z,22.50
2023-03-31T00:30:14.935Z,22.50
2023-03-31T00:32:42.007Z,22.48
2023-03-31T00:35:08.957Z,22.49
2023-03-31T00:37:35.920Z,22.49
2023-03-31T00:40:09.649Z,22.48
2023-03-31T00:42:41.750Z,22.48
2023-03-31T00:45:14.344Z,22.48
2023-03-31T00:47:45.760Z,22.47
2023-03-31T00:50:28.951Z,22.47
2023-03-31T00:53:08.826Z,22.36
2023-03-31T00:55:42.045Z,22.44
2023-03-31T00:58:09.746Z,22.46
2023-03-31T01:00:36.465Z,22.45
2023-03-31T01:03:06.806Z,22.46
2023-03-31T01:05:43.181Z,22.45
2023-03-31T01:08:10.820Z,22.45
2023-03-31T01:10:41.933Z,22.45
2023-03-31T01:13:11.170Z,22.44
2023-03-31T01:15:39.110Z,22.44
2023-03-31T01:18:07.084Z,22.44
2023-03-31T01:20:36.841Z,22.44
2023-03-31T01:23:35.511Z,22.43
2023-03-31T01:26:38.737Z,22.42
2023-03-31T01:29:13.407Z,22.42
2023-03-31T01:32:06.975Z,22.41
2023-03-31T01:34:40.283Z,22.41
2023-03-31T01:37:21.232Z,22.40
2023-03-31T01:40:09.748Z,22.40
2023-03-31T01:42:45.273Z,22.40
2023-03-31T01:45:38.113Z,22.40
2023-03-31T01:48:34.083Z,22.39
2023-03-31T01:51:10.242Z,22.39
2023-03-31T01:54:08.460Z,22.38
2023-03-31T01:56:57.095Z,22.39
2023-03-31T01:59:40.404Z,22.30
2023-03-31T02:02:16.674Z,22.39
2023-03-31T02:04:57.092Z,22.35
2023-03-31T02:07:54.092Z,22.39
2023-03-31T02:10:22.930Z,22.39
2023-03-31T02:12:51.463Z,22.39
2023-03-31T02:15:33.494Z,22.38
2023-03-31T02:18:03.690Z,22.38
2023-03-31T02:20:32.473Z,22.39
2023-03-31T02:23:00.043Z,22.30
2023-03-31T02:25:36.254Z,22.32
2023-03-31T02:28:09.230Z,22.38
2023-03-31T02:30:46.068Z,22.39
2023-03-31T02:33:12.757Z,22.36
2023-03-31T02:35:39.662Z,22.32
2023-03-31T02:38:06.805Z,22.37
2023-03-31T02:40:33.499Z,22.37
2023-03-31T02:43:00.351Z,22.37
2023-03-31T02:45:42.842Z,22.36
2023-03-31T02:48:23.172Z,22.36
2023-03-31T02:51:10.649Z,22.33
2023-03-31T02:53:52.552Z,22.35
2023-03-31T02:56:49.958Z,22.36
2023-03-31T02:59:24.978Z,22.34
2023-03-31T03:02:16.213Z,22.34
2023-03-31T03:04:55.546Z,22.35
2023-03-31T03:07:42.000Z,22.33
2023-03-31T03:10:48.270Z,22.33
2023-03-31T03:13:30.794Z,22.33
2023-03-31T03:16:24.504Z,22.33
2023-03-31T03:18:57.097Z,22.32
2023-03-31T03:21:23.909Z,22.33
2023-03-31T03:23:51.680Z,22.32
2023-03-31T03:26:21.488Z,22.33
2023-03-31T03:28:49.008Z,22.32
2023-03-31T03:31:15.735Z,22.32
2023-03-31T03:33:43.325Z,22.30
2023-03-31T03:36:10.358Z,22.32
2023-03-31T03:38:37.027Z,22.32
2023-03-31T03:41:03.941Z,22.32
2023-03-31T03:43:30.624Z,22.32
2023-03-31T03:45:57.242Z,22.31
2023-03-31T03:48:24.012Z,22.32
2023-03-31T03:50:51.218Z,22.31
2023-03-31T03:53:17.789Z,22.30
2023-03-31T03:55:45.450Z,22.25
2023-03-31T03:58:11.989Z,22.30
2023-03-31T04:00:38.521Z,22.30
2023-03-31T04:03:05.354Z,22.30
2023-03-31T04:05:31.946Z,22.30
2023-03-31T04:07:58.615Z,22.29
2023-03-31T04:10:25.262Z,22.29
2023-03-31T04:12:51.806Z,22.30
2023-03-31T04:15:18.360Z,22.28
2023-03-31T04:17:51.103Z,22.29
2023-03-31T04:20:17.751Z,22.28
2023-03-31T04:22:46.962Z,22.27
2023-03-31T04:25:17.689Z,22.28
2023-03-31T04:27:54.834Z,22.27
2023-03-31T04:30:23.693Z,22.27
2023-03-31T04:32:56.454Z,22.22
2023-03-31T04:35:24.893Z,22.27
2023-03-31T04:37:58.992Z,22.26
2023-03-31T04:40:26.575Z,22.27
2023-03-31T04:42:53.161Z,22.26
2023-03-31T04:45:19.734Z,22.24
2023-03-31T04:47:46.289Z,22.25
2023-03-31T04:50:16.156Z,22.24
2023-03-31T04:52:43.716Z,22.23
2023-03-31T04:55:10.379Z,22.25
2023-03-31T04:57:37.339Z,22.24
2023-03-31T05:00:08.226Z,22.24
2023-03-31T05:02:35.044Z,22.25
2023-03-31T05:05:01.718Z,22.24
2023-03-31T05:07:28.339Z,22.25
2023-03-31T05:09:54.860Z,22.23
2023-03-31T05:12:21.520Z,22.24
2023-03-31T05:14:48.165Z,22.23
2023-03-31T05:17:14.747Z,22.24
2023-03-31T05:19:41.342Z,22.15
2023-03-31T05:22:08.044Z,22.24
2023-03-31T05:24:38.232Z,22.23
2023-03-31T05:27:04.813Z,22.24
2023-03-31T05:29:31.367Z,22.24
2023-03-31T05:31:58.028Z,22.22
2023-03-31T05:34:24.607Z,22.24
2023-03-31T05:36:53.823Z,22.24
2023-03-31T05:39:21.856Z,22.18
2023-03-31T05:41:48.483Z,22.24
2023-03-31T05:44:15.457Z,22.22
2023-03-31T05:46:42.539Z,22.27
2023-03-31T05:49:09.155Z,22.28
2023-03-31T05:51:35.787Z,22.27
2023-03-31T05:54:02.549Z,22.29
2023-03-31T05:56:29.273Z,22.29
2023-03-31T05:58:55.814Z,22.26
2023-03-31T06:01:23.642Z,22.31
2023-03-31T06:03:50.614Z,22.31
2023-03-31T06:06:17.426Z,22.24
2023-03-31T06:08:45.874Z,22.32
2023-03-31T06:11:16.375Z,22.33
2023-03-31T06:13:43.311Z,22.33
2023-03-31T06:16:12.361Z,22.34
2023-03-31T06:18:40.072Z,22.33
2023-03-31T06:21:07.994Z,22.34
2023-03-31T06:23:35.287Z,22.34
2023-03-31T06:26:06.303Z,22.35
2023-03-31T06:28:36.500Z,22.35
2023-03-31T06:31:13.048Z,22.22
2023-03-31T06:33:41.759Z,22.36
2023-03-31T06:36:09.687Z,22.37
2023-03-31T06:38:38.388Z,22.37
2023-03-31T06:41:09.598Z,22.38
2023-03-31T06:43:36.293Z,22.39
2023-03-31T06:46:02.994Z,22.39
2023-03-31T06:48:29.748Z,22.37
2023-03-31T06:51:00.150Z,22.39
2023-03-31T06:53:27.078Z,22.41
2023-03-31T06:55:54.014Z,22.40
2023-03-31T06:58:22.557Z,22.43
2023-03-31T07:00:49.620Z,22.42
2023-03-31T07:03:22.687Z,22.44
2023-03-31T07:05:51.012Z,22.41
2023-03-31T07:08:18.543Z,22.47
2023-03-31T07:10:49.138Z,22.47
2023-03-31T07:13:17.601Z,22.48
2023-03-31T07:15:46.940Z,22.45
2023-03-31T07:18:15.712Z,22.44
2023-03-31T07:20:44.012Z,22.49
2023-03-31T07:23:10.886Z,22.51
2023-03-31T07:25:37.620Z,22.52
2023-03-31T07:28:06.123Z,22.45
2023-03-31T07:30:32.775Z,22.50
2023-03-31T07:32:59.571Z,22.54
2023-03-31T07:35:26.247Z,22.55
2023-03-31T07:37:52.904Z,22.55
2023-03-31T07:40:25.501Z,22.56
2023-03-31T07:42:53.094Z,22.53
2023-03-31T07:45:21.480Z,22.59
2023-03-31T07:47:48.492Z,22.59
2023-03-31T07:50:16.141Z,22.58
2023-03-31T07:52:46.154Z,22.58
2023-03-31T07:55:14.721Z,22.58
2023-03-31T07:57:42.158Z,22.58
2023-03-31T08:00:12.532Z,22.57
2023-03-31T08:02:42.926Z,22.58
2023-03-31T08:05:11.933Z,22.57
2023-03-31T08:07:41.650Z,22.57
2023-03-31T08:10:11.201Z,22.59
2023-03-31T08:12:37.844Z,22.56
2023-03-31T08:15:05.368Z,22.62
2023-03-31T08:17:31.950Z,22.63
2023-03-31T08:20:01.638Z,22.63
2023-03-31T08:22:30.526Z,22.64
2023-03-31T08:24:57.124Z,22.59
2023-03-31T08:27:24.148Z,22.62
2023-03-31T08:29:50.697Z,22.62
2023-03-31T08:32:17.421Z,22.61
2023-03-31T08:34:45.198Z,22.61
2023-03-31T08:37:11.815Z,22.63
2023-03-31T08:39:39.061Z,22.64
2023-03-31T08:42:16.837Z,22.65
2023-03-31T08:45:00.037Z,22.67
2023-03-31T08:47:29.497Z,22.68
2023-03-31T08:50:20.787Z,22.69
2023-03-31T08:53:00.150Z,22.70
2023-03-31T08:55:43.662Z,22.72
2023-03-31T08:58:36.227Z,22.71
2023-03-31T09:01:26.247Z,22.77
2023-03-31T09:04:02.646Z,22.79
2023-03-31T09:06:42.745Z,22.81
2023-03-31T09:09:25.682Z,22.79
2023-03-31T09:11:57.520Z,22.84
2023-03-31T09:15:02.592Z,22.86
2023-03-31T09:17:39.067Z,22.88
2023-03-31T09:20:13.460Z,22.89
2023-03-31T09:22:48.769Z,22.90
2023-03-31T09:25:28.370Z,22.90
2023-03-31T09:27:59.904Z,22.92
2023-03-31T09:30:29.609Z,22.89
2023-03-31T09:33:23.184Z,22.95
2023-03-31T09:35:51.926Z,22.73
2023-03-31T09:38:18.804Z,22.90
2023-03-31T09:40:45.945Z,22.98
2023-03-31T09:43:35.684Z,23.00
2023-03-31T09:46:09.826Z,23.02
2023-03-31T09:48:38.808Z,23.04
2023-03-31T09:51:07.818Z,22.95
2023-03-31T09:54:02.033Z,23.08
2023-03-31T09:56:35.987Z,23.10
2023-03-31T09:59:04.135Z,23.12
2023-03-31T10:01:32.010Z,23.11
2023-03-31T10:03:58.786Z,23.12
2023-03-31T10:06:26.654Z,23.18
2023-03-31T10:09:05.357Z,23.20
2023-03-31T10:11:32.271Z,23.20
2023-03-31T10:14:13.260Z,23.22
2023-03-31T10:16:53.367Z,23.25
2023-03-31T10:19:26.517Z,23.25
2023-03-31T10:22:01.650Z,23.27
2023-03-31T10:24:43.492Z,23.29
2023-03-31T10:27:20.035Z,23.29
2023-03-31T10:29:47.149Z,23.25
2023-03-31T10:32:30.605Z,23.34
2023-03-31T10:34:59.465Z,23.35
2023-03-31T10:37:28.555Z,23.36
2023-03-31T10:40:29.199Z,23.37
2023-03-31T10:43:23.469Z,23.38
2023-03-31T10:45:54.794Z,23.39
2023-03-31T10:48:33.248Z,23.39
2023-03-31T10:51:14.229Z,23.41
2023-03-31T10:53:43.924Z,23.41
2023-03-31T10:56:35.016Z,23.43
2023-03-31T10:59:27.754Z,23.45
2023-03-31T11:02:01.922Z,23.46
2023-03-31T11:04:50.430Z,23.48
2023-03-31T11:07:38.409Z,23.49
2023-03-31T11:10:13.928Z,23.49
2023-03-31T11:12:58.957Z,23.51
2023-03-31T11:16:02.618Z,23.52
2023-03-31T11:18:53.655Z,23.52
2023-03-31T11:21:47.822Z,23.51
2023-03-31T11:24:35.717Z,23.53
2023-03-31T11:27:58.593Z,23.54
2023-03-31T11:30:31.281Z,23.53
2023-03-31T11:33:07.009Z,23.56
2023-03-31T11:36:22.237Z,23.56
2023-03-31T11:38:53.754Z,23.57
2023-03-31T11:41:30.126Z,23.54
2023-03-31T11:44:03.923Z,23.56
2023-03-31T11:46:49.456Z,23.56
2023-03-31T11:49:21.985Z,23.56
2023-03-31T11:52:00.500Z,23.56
2023-03-31T11:54:42.127Z,23.57
2023-03-31T11:57:31.607Z,23.58
2023-03-31T12:00:17.487Z,23.59
2023-03-31T12:02:59.378Z,23.59
2023-03-31T12:05:28.685Z,23.60
2023-03-31T12:08:11.742Z,23.08
2023-03-31T12:10:44.594Z,23.60
2023-03-31T12:13:44.599Z,23.60
2023-03-31T12:16:28.892Z,23.59
2023-03-31T12:19:22.711Z,23.58
2023-03-31T12:21:55.695Z,23.58
2023-03-31T12:24:22.305Z,23.57
2023-03-31T12:27:19.683Z,23.58
2023-03-31T12:29:57.812Z,23.56
2023-03-31T12:32:29.847Z,23.58
2023-03-31T12:35:05.746Z,23.58
2023-03-31T12:37:44.132Z,23.62
2023-03-31T12:40:45.847Z,23.62
2023-03-31T12:43:38.678Z,23.62
2023-03-31T12:46:36.782Z,23.51
2023-03-31T12:49:41.291Z,23.66
2023-03-31T12:52:18.227Z,23.66
2023-03-31T12:54:59.795Z,23.68
2023-03-31T12:57:27.188Z,23.68
2023-03-31T13:00:07.649Z,23.69
2023-03-31T13:02:34.459Z,23.70
2023-03-31T13:05:36.281Z,23.71
2023-03-31T13:08:08.595Z,23.71
2023-03-31T13:10:55.919Z,23.72
2023-03-31T13:13:22.591Z,23.74
2023-03-31T13:16:01.126Z,23.74
2023-03-31T13:18:32.533Z,23.75
2023-03-31T13:23:33.541Z,23.78
2023-03-31T13:26:00.852Z,23.78
2023-03-31T13:28:42.408Z,23.80
2023-03-31T13:31:15.114Z,23.81
2023-03-31T13:33:57.404Z,23.81
2023-03-31T13:36:48.814Z,23.82
2023-03-31T13:39:39.872Z,23.80
2023-03-31T13:42:36.898Z,23.84
2023-03-31T13:45:09.760Z,23.82
2023-03-31T13:47:53.699Z,23.84
2023-03-31T13:50:47.064Z,23.84
2023-03-31T13:53:28.754Z,23.84
2023-03-31T13:56:08.703Z,23.84
2023-03-31T13:58:50.706Z,23.84
2023-03-31T14:01:58.789Z,23.82
2023-03-31T14:04:46.731Z,23.82
2023-03-31T14:07:26.643Z,23.81
2023-03-31T14:09:54.099Z,23.82
2023-03-31T14:12:36.544Z,23.83
2023-03-31T14:15:05.685Z,23.82
2023-03-31T14:17:38.691Z,23.82
2023-03-31T14:20:30.227Z,23.81
2023-03-31T14:23:18.209Z,23.81
2023-03-31T14:26:02.532Z,23.80
2023-03-31T14:29:03.506Z,23.81
2023-03-31T14:31:55.103Z,23.81
2023-03-31T14:34:43.063Z,23.81
2023-03-31T14:37:17.736Z,23.81
2023-03-31T14:39:48.577Z,23.82
2023-03-31T14:42:26.946Z,23.82
2023-03-31T14:44:58.355Z,23.61
2023-03-31T14:47:30.314Z,23.83
2023-03-31T14:50:28.262Z,23.84
2023-03-31T14:52:55.582Z,23.84
2023-03-31T14:55:31.801Z,23.83
2023-03-31T14:58:14.166Z,23.83
2023-03-31T15:00:41.403Z,23.82
2023-03-31T15:03:16.397Z,23.82
2023-03-31T15:05:44.384Z,23.80
2023-03-31T15:08:16.143Z,23.71
2023-03-31T15:10:46.154Z,23.78
2023-03-31T15:13:19.258Z,23.77
2023-03-31T15:15:46.280Z,23.70
2023-03-31T15:18:14.899Z,23.75
2023-03-31T15:20:44.030Z,23.74
2023-03-31T15:23:31.014Z,23.74
2023-03-31T15:26:01.853Z,23.64
2023-03-31T15:28:33.914Z,23.71
2023-03-31T15:33:50.706Z,23.59
2023-03-31T15:36:17.385Z,23.68
2023-03-31T15:38:44.090Z,23.67
2023-03-31T15:41:17.539Z,23.68
2023-03-31T15:44:04.519Z,23.69
2023-03-31T15:46:43.394Z,23.70
2023-03-31T15:49:21.558Z,23.69
2023-03-31T15:51:50.707Z,23.63
2023-03-31T15:54:34.170Z,23.71
2023-03-31T15:57:06.973Z,23.72
2023-03-31T15:59:55.350Z,23.67
2023-03-31T16:02:34.562Z,23.73
2023-03-31T16:05:08.066Z,23.72
2023-03-31T16:07:37.545Z,23.71
2023-03-31T16:10:17.811Z,23.73
2023-03-31T16:13:02.969Z,23.72
2023-03-31T16:15:34.933Z,23.72
2023-03-31T16:18:13.125Z,23.70
2023-03-31T16:20:46.074Z,23.70
2023-03-31T16:23:26.336Z,23.69
2023-03-31T16:25:59.571Z,23.50
2023-03-31T16:28:30.859Z,23.66
2023-03-31T16:31:01.755Z,23.58
2023-03-31T16:33:31.738Z,23.62
2023-03-31T16:35:59.003Z,23.55
2023-03-31T16:38:29.800Z,23.61
2023-03-31T16:40:59.098Z,23.60
2023-03-31T16:43:28.273Z,23.58
2023-03-31T16:45:57.516Z,23.57
2023-03-31T16:48:26.432Z,23.55
2023-03-31T16:50:55.536Z,23.54
2023-03-31T16:53:26.461Z,23.52
2023-03-31T16:55:53.385Z,23.48
2023-03-31T16:58:20.329Z,23.47
2023-03-31T17:00:47.771Z,23.44
2023-03-31T17:03:19.162Z,23.35
2023-03-31T17:05:52.807Z,23.42
2023-03-31T17:08:27.240Z,23.39
2023-03-31T17:11:08.526Z,23.38
2023-03-31T17:18:49.620Z,23.32
2023-03-31T17:21:20.438Z,23.30
2023-03-31T17:23:47.571Z,23.28
2023-03-31T17:26:15.421Z,23.19
2023-03-31T17:28:42.872Z,23.25
2023-03-31T17:31:18.720Z,23.24
2023-03-31T17:33:45.346Z,23.21
2023-03-31T17:36:12.545Z,23.21
2023-03-31T17:38:40.143Z,23.19
2023-03-31T17:41:09.220Z,23.13
2023-03-31T17:43:36.249Z,23.18
2023-03-31T17:46:09.945Z,23.17
2023-03-31T17:48:39.124Z,23.11
2023-03-31T17:51:24.242Z,23.01
2023-03-31T17:53:51.010Z,23.11
2023-03-31T17:56:17.885Z,23.05
2023-03-31T17:58:45.291Z,23.09
2023-03-31T18:01:12.664Z,23.10
2023-03-31T18:03:39.740Z,23.06
2023-03-31T18:06:11.763Z,23.07
2023-03-31T18:08:41.208Z,23.09
2023-03-31T18:11:09.040Z,23.10
2023-03-31T18:13:41.338Z,23.09
2023-03-31T18:18:28.072Z,23.09
2023-03-31T18:20:55.401Z,23.09
2023-03-31T18:23:23.135Z,23.05
2023-03-31T18:25:50.087Z,23.10
2023-03-31T18:28:17.902Z,23.09
2023-03-31T18:30:44.827Z,23.09
2023-03-31T18:33:12.780Z,23.00
2023-03-31T18:35:39.979Z,23.00
2023-03-31T18:38:07.199Z,23.04
2023-03-31T18:40:33.990Z,23.03
2023-03-31T18:43:00.736Z,22.94
2023-03-31T18:45:28.141Z,22.92
2023-03-31T18:47:58.503Z,23.00
2023-03-31T18:50:30.573Z,22.99
2023-03-31T18:52:57.862Z,22.98
2023-03-31T18:55:24.589Z,22.96
2023-03-31T18:57:59.264Z,22.97
2023-03-31T19:00:30.227Z,22.96
2023-03-31T19:02:57.419Z,22.95
2023-03-31T19:05:24.146Z,22.95
2023-03-31T19:07:51.322Z,22.91
2023-03-31T19:10:18.202Z,22.93
2023-03-31T19:12:48.862Z,22.95
2023-03-31T19:15:16.565Z,22.95
2023-03-31T19:17:43.306Z,22.94
2023-03-31T19:20:16.950Z,22.95
2023-03-31T19:22:49.452Z,22.93
2023-03-31T19:25:22.753Z,22.92
2023-03-31T19:27:50.361Z,22.86
2023-03-31T19:30:22.744Z,22.91
2023-03-31T19:32:49.992Z,22.92
2023-03-31T19:35:18.405Z,22.90
2023-03-31T19:37:46.135Z,22.92
2023-03-31T19:40:14.637Z,22.91
2023-03-31T19:42:44.618Z,22.89
2023-03-31T19:45:14.166Z,22.91
2023-03-31T19:47:42.016Z,22.92
2023-03-31T19:50:13.226Z,22.92
2023-03-31T19:52:40.038Z,22.91
2023-03-31T19:55:07.231Z,22.91
2023-03-31T19:57:33.984Z,22.92
2023-03-31T20:00:01.322Z,22.90
2023-03-31T20:02:40.891Z,22.86
2023-03-31T20:05:08.123Z,22.92
2023-03-31T20:07:34.676Z,22.92
2023-03-31T20:10:03.939Z,22.91
2023-03-31T20:12:32.487Z,22.85
2023-03-31T20:15:01.767Z,22.91
2023-03-31T20:17:28.371Z,22.92
2023-03-31T20:20:01.769Z,22.92
2023-03-31T20:22:30.633Z,22.91
2023-03-31T20:24:58.750Z,22.92
2023-03-31T20:27:26.449Z,22.92
2023-03-31T20:29:56.503Z,22.91
2023-03-31T20:32:24.153Z,22.94
2023-03-31T20:34:50.833Z,22.88
2023-03-31T20:37:18.249Z,22.93
2023-03-31T20:39:45.577Z,22.94
2023-03-31T20:42:13.076Z,22.93
2023-03-31T20:44:39.962Z,22.94
2023-03-31T20:47:07.390Z,22.95
2023-03-31T20:49:34.150Z,22.96
2023-03-31T20:52:01.347Z,22.95
2023-03-31T20:54:28.037Z,22.94
2023-03-31T20:56:54.703Z,22.90
2023-03-31T20:59:24.352Z,22.95
2023-03-31T21:01:51.590Z,22.95
2023-03-31T21:04:18.267Z,22.89
2023-03-31T21:06:47.416Z,22.94
2023-03-31T21:09:18.996Z,22.94
2023-03-31T21:11:45.891Z,22.94
2023-03-31T21:14:16.871Z,22.93
2023-03-31T21:16:43.741Z,22.84
2023-03-31T21:19:10.696Z,22.93
2023-03-31T21:21:40.101Z,22.93
2023-03-31T21:24:07.986Z,22.92
2023-03-31T21:26:34.677Z,22.92
2023-03-31T21:29:01.260Z,22.92
2023-03-31T21:31:28.003Z,22.92
2023-03-31T21:33:57.603Z,22.86
2023-03-31T21:36:25.232Z,22.92
2023-03-31T21:38:57.128Z,22.93
2023-03-31T21:41:30.305Z,22.91
2023-03-31T21:44:00.496Z,22.93
2023-03-31T21:46:31.784Z,22.92
2023-03-31T21:48:58.589Z,22.91
2023-03-31T21:51:26.611Z,22.90
2023-03-31T21:53:55.728Z,22.87
2023-03-31T21:56:24.328Z,22.89
2023-03-31T21:58:51.633Z,22.92
2023-03-31T22:01:18.663Z,22.89
2023-03-31T22:03:45.675Z,22.91
2023-03-31T22:06:12.906Z,22.91
2023-03-31T22:08:39.856Z,22.91
2023-03-31T22:11:10.282Z,22.91
2023-03-31T22:13:37.223Z,22.92
2023-03-31T22:16:05.883Z,22.90
2023-03-31T22:18:32.617Z,22.92
2023-03-31T22:20:59.301Z,22.89
2023-03-31T22:23:27.505Z,22.92
2023-03-31T22:25:55.476Z,22.91
2023-03-31T22:28:22.133Z,22.92
2023-03-31T22:30:48.742Z,22.92
2023-03-31T22:33:17.867Z,22.89
2023-03-31T22:35:44.469Z,22.91
2023-03-31T22:40:40.388Z,22.93
2023-03-31T22:43:07.040Z,22.86
2023-03-31T22:45:37.706Z,22.93
2023-03-31T22:48:05.310Z,22.87
2023-03-31T22:50:32.685Z,22.94
2023-03-31T22:52:59.806Z,22.95
2023-03-31T22:55:26.630Z,22.93
2023-03-31T22:57:53.201Z,22.88
2023-03-31T23:00:19.855Z,22.96
2023-03-31T23:02:46.564Z,22.88
2023-03-31T23:05:13.178Z,22.97
2023-03-31T23:07:39.890Z,22.96
2023-03-31T23:10:07.163Z,22.96
2023-03-31T23:12:34.168Z,22.98
2023-03-31T23:15:03.759Z,22.95
2023-03-31T23:17:31.030Z,22.97
2023-03-31T23:19:57.588Z,22.98
2023-03-31T23:22:25.723Z,22.86
2023-03-31T23:24:52.513Z,22.99
2023-03-31T23:27:19.763Z,22.99
2023-03-31T23:29:46.627Z,22.86
2023-03-31T23:32:14.345Z,22.98
2023-03-31T23:34:41.827Z,23.00
2023-03-31T23:37:10.350Z,23.00
2023-03-31T23:39:38.715Z,22.89
2023-03-31T23:42:10.018Z,23.00
2023-03-31T23:44:39.539Z,22.94
2023-03-31T23:47:06.160Z,22.89
2023-03-31T23:49:33.351Z,23.01
2023-03-31T23:51:59.971Z,23.01
2023-03-31T23:54:27.230Z,23.01
2023-03-31T23:56:53.831Z,23.01
2023-03-31T23:59:20.620Z,23.02
